createdAt,value
2023-05-18T00:04:48.896Z,12.09
2023-05-18T00:09:51.275Z,12.17
2023-05-18T00:14:54.058Z,12.05
2023-05-18T00:19:58.870Z,12.17
2023-05-18T00:25:01.941Z,12.13
2023-05-18T00:30:06.595Z,12.01
2023-05-18T00:35:12.249Z,12.04
2023-05-18T00:40:14.678Z,12.28
2023-05-18T00:45:19.302Z,12.24
2023-05-18T00:50:22.382Z,12.12
2023-05-18T00:55:25.159Z,12.19
2023-05-18T01:00:28.698Z,12.39
2023-05-18T01:05:32.492Z,12.33
2023-05-18T01:10:38.677Z,12.30
2023-05-18T01:15:42.289Z,12.30
2023-05-18T01:20:50.309Z,12.23
2023-05-18T01:25:56.321Z,12.30
2023-05-18T01:31:00.464Z,12.29
2023-05-18T01:36:03.426Z,12.39
2023-05-18T01:41:15.245Z,12.28
2023-05-18T01:46:33.515Z,12.30
2023-05-18T01:51:41.680Z,12.11
2023-05-18T01:56:46.502Z,12.14
2023-05-18T02:01:49.283Z,12.09
2023-05-18T02:06:54.559Z,12.05
2023-05-18T02:11:57.477Z,11.97
2023-05-18T02:17:01.315Z,12.09
2023-05-18T02:22:08.527Z,12.32
2023-05-18T02:27:11.993Z,12.24
2023-05-18T02:32:14.930Z,12.34
2023-05-18T02:37:17.784Z,12.40
2023-05-18T02:42:20.041Z,12.18
2023-05-18T02:47:23.130Z,12.06
2023-05-18T02:52:26.375Z,12.21
2023-05-18T02:57:29.390Z,12.29
2023-05-18T03:02:39.345Z,12.25
2023-05-18T03:07:46.384Z,12.28
2023-05-18T03:12:49.785Z,12.27
2023-05-18T03:17:53.613Z,12.14
2023-05-18T03:22:56.269Z,11.93
2023-05-18T03:28:00.393Z,12.24
2023-05-18T03:33:04.765Z,12.06
2023-05-18T03:38:08.753Z,12.04
2023-05-18T03:43:13.505Z,12.11
2023-05-18T03:48:17.611Z,12.29
2023-05-18T03:53:21.689Z,12.32
2023-05-18T03:58:27.690Z,12.36
2023-05-18T04:03:31.060Z,12.42
2023-05-18T04:08:34.648Z,12.45
2023-05-18T04:13:38.683Z,12.44
2023-05-18T04:18:42.439Z,12.70
2023-05-18T04:23:46.011Z,13.15
2023-05-18T04:28:48.781Z,13.21
2023-05-18T04:34:10.194Z,13.44
2023-05-18T04:39:13.775Z,13.47
2023-05-18T04:44:18.706Z,13.61
2023-05-18T04:49:23.170Z,13.75
2023-05-18T04:54:27.002Z,13.78
2023-05-18T04:59:30.307Z,13.95
2023-05-18T05:04:35.671Z,13.86
2023-05-18T05:09:38.716Z,14.01
2023-05-18T05:14:41.593Z,14.04
2023-05-18T05:19:44.307Z,14.49
2023-05-18T05:24:48.044Z,14.88
2023-05-18T05:29:50.985Z,15.01
2023-05-18T05:34:53.932Z,15.19
2023-05-18T05:39:57.117Z,15.47
2023-05-18T05:45:00.029Z,15.65
2023-05-18T05:50:04.216Z,15.98
2023-05-18T05:55:07.528Z,16.36
2023-05-18T06:00:13.608Z,16.62
2023-05-18T06:05:32.937Z,16.63
2023-05-18T06:10:36.977Z,16.58
2023-05-18T06:15:40.420Z,16.68
2023-05-18T06:20:43.451Z,16.63
2023-05-18T06:25:47.565Z,16.76
2023-05-18T06:31:00.951Z,16.67
2023-05-18T06:36:21.417Z,16.73
2023-05-18T06:41:24.216Z,16.79
2023-05-18T06:46:27.307Z,16.62
2023-05-18T06:51:36.638Z,16.67
2023-05-18T06:56:40.138Z,16.54
2023-05-18T07:01:43.212Z,16.42
2023-05-18T07:06:47.250Z,16.27
2023-05-18T07:11:49.908Z,16.03
2023-05-18T07:16:52.705Z,15.81
2023-05-18T07:21:57.112Z,16.01
2023-05-18T07:27:01.072Z,16.36
2023-05-18T07:32:04.391Z,16.67
2023-05-18T07:37:06.729Z,16.83
2023-05-18T07:42:09.587Z,16.90
2023-05-18T07:47:12.476Z,16.84
2023-05-18T07:52:15.458Z,16.82
2023-05-18T07:57:18.260Z,16.51
2023-05-18T08:02:21.178Z,16.33
2023-05-18T08:07:26.801Z,15.53
2023-05-18T08:12:30.339Z,14.80
2023-05-18T08:17:33.064Z,14.16
2023-05-18T08:22:35.708Z,14.20
2023-05-18T08:27:38.554Z,14.46
2023-05-18T08:32:40.801Z,14.41
2023-05-18T08:37:43.808Z,14.42
2023-05-18T08:43:03.769Z,14.63
2023-05-18T08:48:07.895Z,14.69
2023-05-18T08:53:14.740Z,14.49
2023-05-18T08:58:21.735Z,14.74
2023-05-18T09:03:25.133Z,15.28
2023-05-18T09:08:29.316Z,15.36
2023-05-18T09:13:32.097Z,15.82
2023-05-18T09:18:34.856Z,16.21
2023-05-18T09:23:39.868Z,15.71
2023-05-18T09:28:44.298Z,15.57
2023-05-18T09:33:48.411Z,15.65
2023-05-18T09:38:54.184Z,15.35
2023-05-18T09:43:57.003Z,15.13
2023-05-18T09:49:00.125Z,15.27
2023-05-18T09:54:06.396Z,15.26
2023-05-18T09:59:15.849Z,15.20
2023-05-18T10:04:21.856Z,14.86
2023-05-18T10:09:24.626Z,14.52
2023-05-18T10:14:31.581Z,14.16
2023-05-18T10:19:40.388Z,14.01
2023-05-18T10:24:46.714Z,14.20
2023-05-18T10:29:52.746Z,14.16
2023-05-18T10:34:57.473Z,14.58
2023-05-18T10:40:01.299Z,14.80
2023-05-18T10:45:05.338Z,14.80
2023-05-18T10:50:09.533Z,15.11
2023-05-18T10:55:12.870Z,15.34
2023-05-18T11:00:16.530Z,15.31
2023-05-18T11:05:26.594Z,15.53
2023-05-18T11:10:36.420Z,15.29
2023-05-18T11:15:56.138Z,15.41
2023-05-18T11:21:00.191Z,15.24
2023-05-18T11:26:05.862Z,15.13
2023-05-18T11:31:08.504Z,15.11
2023-05-18T11:36:13.886Z,15.22
2023-05-18T11:41:29.660Z,15.13
2023-05-18T11:46:32.020Z,14.96
2023-05-18T11:51:57.232Z,14.98
2023-05-18T11:57:01.415Z,14.56
2023-05-18T12:02:05.266Z,14.51
2023-05-18T12:07:08.148Z,14.67
2023-05-18T12:12:12.623Z,14.93
2023-05-18T12:17:15.349Z,15.14
2023-05-18T12:22:17.610Z,15.03
2023-05-18T12:27:23.269Z,15.22
2023-05-18T12:32:26.502Z,15.02
2023-05-18T12:37:38.091Z,15.17
2023-05-18T12:42:56.707Z,15.09
2023-05-18T12:48:09.962Z,14.88
2023-05-18T12:53:13.169Z,14.80
2023-05-18T12:58:19.261Z,14.34
2023-05-18T13:03:23.015Z,14.16
2023-05-18T13:08:25.825Z,14.13
2023-05-18T13:13:28.897Z,14.32
2023-05-18T13:18:31.763Z,14.76
2023-05-18T13:23:33.960Z,15.12
2023-05-18T13:28:36.584Z,15.33
2023-05-18T13:33:39.210Z,15.32
2023-05-18T13:38:42.874Z,15.21
2023-05-18T13:43:45.575Z,15.49
2023-05-18T13:48:48.321Z,16.07
2023-05-18T13:53:51.194Z,15.82
2023-05-18T13:58:53.952Z,15.41
2023-05-18T14:03:56.406Z,15.46
2023-05-18T14:08:59.303Z,15.41
2023-05-18T14:14:01.976Z,15.65
2023-05-18T14:19:04.912Z,15.80
2023-05-18T14:24:08.725Z,15.69
2023-05-18T14:29:11.387Z,15.75
2023-05-18T14:34:14.321Z,15.89
2023-05-18T14:39:16.692Z,15.72
2023-05-18T14:44:19.554Z,15.23
2023-05-18T14:49:21.792Z,15.25
2023-05-18T14:54:24.513Z,15.11
2023-05-18T14:59:27.274Z,15.34
2023-05-18T15:04:29.514Z,15.27
2023-05-18T15:09:32.285Z,15.16
2023-05-18T15:14:34.958Z,14.78
2023-05-18T15:19:37.741Z,14.41
2023-05-18T15:24:40.451Z,14.35
2023-05-18T15:29:43.241Z,14.36
2023-05-18T15:34:45.422Z,13.94
2023-05-18T15:39:48.107Z,13.63
2023-05-18T15:44:50.981Z,13.60
2023-05-18T15:49:54.767Z,13.40
2023-05-18T15:54:59.091Z,13.40
2023-05-18T16:00:02.076Z,13.28
2023-05-18T16:05:14.332Z,13.10
2023-05-18T16:10:18.849Z,13.23
2023-05-18T16:15:24.673Z,13.11
2023-05-18T16:20:27.414Z,13.09
2023-05-18T16:25:30.089Z,13.00
2023-05-18T16:30:32.574Z,12.95
2023-05-18T16:35:36.021Z,12.80
2023-05-18T16:40:39.023Z,12.73
2023-05-18T16:45:42.703Z,12.56
2023-05-18T16:50:45.819Z,12.69
2023-05-18T16:55:49.902Z,12.42
2023-05-18T17:00:53.506Z,12.37
2023-05-18T17:05:56.350Z,12.43
2023-05-18T17:10:59.333Z,12.44
2023-05-18T17:16:02.262Z,12.38
2023-05-18T17:21:04.962Z,12.52
2023-05-18T17:26:07.689Z,12.49
2023-05-18T17:31:10.566Z,12.29
2023-05-18T17:36:14.525Z,12.50
2023-05-18T17:41:17.540Z,12.46
2023-05-18T17:46:20.377Z,12.36
2023-05-18T17:51:25.410Z,12.33
2023-05-18T17:56:28.430Z,12.28
2023-05-18T18:01:31.697Z,12.33
2023-05-18T18:06:37.489Z,12.24
2023-05-18T18:11:40.310Z,12.37
2023-05-18T18:16:42.559Z,12.43
2023-05-18T18:21:45.255Z,12.51
2023-05-18T18:26:49.263Z,12.61
2023-05-18T18:31:51.996Z,12.29
2023-05-18T18:36:54.280Z,12.46
2023-05-18T18:41:57.181Z,12.50
2023-05-18T18:46:59.936Z,12.44
2023-05-18T18:52:02.660Z,12.30
2023-05-18T18:57:05.981Z,12.38
2023-05-18T19:02:08.280Z,12.58
2023-05-18T19:07:11.109Z,12.46
2023-05-18T19:12:13.831Z,12.43
2023-05-18T19:17:17.248Z,12.49
2023-05-18T19:22:20.301Z,12.45
2023-05-18T19:27:23.283Z,12.44
2023-05-18T19:32:26.533Z,12.41
2023-05-18T19:37:28.888Z,12.50
2023-05-18T19:42:31.744Z,12.51
2023-05-18T19:47:36.266Z,12.41
2023-05-18T19:52:39.131Z,12.52
2023-05-18T19:57:41.478Z,12.58
2023-05-18T20:02:44.341Z,12.68
2023-05-18T20:07:47.303Z,12.54
2023-05-18T20:12:50.143Z,12.35
2023-05-18T20:17:53.369Z,12.45
2023-05-18T20:22:57.282Z,12.54
2023-05-18T20:28:01.574Z,12.55
2023-05-18T20:33:05.114Z,12.25
2023-05-18T20:38:08.177Z,12.09
2023-05-18T20:43:11.879Z,12.38
2023-05-18T20:48:18.473Z,12.06
2023-05-18T20:53:21.961Z,12.28
2023-05-18T20:58:27.254Z,12.30
2023-05-18T21:03:30.734Z,12.24
2023-05-18T21:08:39.125Z,12.05
2023-05-18T21:13:42.156Z,12.02
2023-05-18T21:18:45.286Z,11.86
2023-05-18T21:23:50.880Z,11.95
2023-05-18T21:28:53.726Z,11.93
2023-05-18T21:33:56.759Z,11.80
2023-05-18T21:39:01.880Z,12.13
2023-05-18T21:44:05.596Z,11.95
2023-05-18T21:49:09.235Z,12.06
2023-05-18T21:54:11.658Z,12.13
2023-05-18T21:59:14.359Z,12.15
2023-05-18T22:04:18.082Z,12.20
2023-05-18T22:09:20.997Z,12.27
2023-05-18T22:14:23.217Z,12.17
2023-05-18T22:19:26.150Z,12.02
2023-05-18T22:24:28.976Z,12.15
2023-05-18T22:29:32.248Z,12.20
2023-05-18T22:34:35.092Z,12.25
2023-05-18T22:39:37.357Z,12.38
2023-05-18T22:44:40.079Z,12.43
2023-05-18T22:49:42.498Z,12.36
2023-05-18T22:54:45.327Z,12.56
2023-05-18T22:59:48.070Z,12.42
2023-05-18T23:04:50.592Z,12.49
2023-05-18T23:09:54.123Z,12.30
2023-05-18T23:14:56.789Z,12.30
2023-05-18T23:20:03.168Z,12.36
2023-05-18T23:25:08.951Z,12.10
2023-05-18T23:30:12.419Z,12.18
2023-05-18T23:35:15.902Z,12.22
2023-05-18T23:40:19.641Z,12.02
2023-05-18T23:45:22.367Z,12.11
2023-05-18T23:50:26.036Z,12.05
2023-05-18T23:55:28.681Z,12.13
